Terminal Aerodrome Forecast
Issued by NWS

Home | Current Version | Previous Version | Text Only | Print | Product List | Glossary On
Versions: 1 2 3 4 5 6 7 8 9 10 11 12 13 14 15 16 17 18 19
000
FTAK31 PAJN 301100
TAFAKT
TAF
PAKT 301138Z 3012/3112 15015G25KT P6SM -RA SCT030 OVC050
      WS020/16045KT
     FM301400 14012G20KT 5SM -RA BR SCT015 OVC030 WS020/16035KT
     FM302200 14010KT 6SM -RA BR OVC025
     FM310100 14008KT P6SM VCSH SCT020 OVC030
      AMD LTD TO CLD VIS AND WIND 3012/3015=

USA.gov is the U.S. government's official web portal to all federal, state and local government web resources and services.